createdAt,value
2019-03-27T00:00:55.878Z,90.30
2019-03-27T00:03:27.164Z,90.30
2019-03-27T00:05:58.589Z,90.30
2019-03-27T00:08:29.799Z,90.50
2019-03-27T00:11:01.039Z,90.50
2019-03-27T00:13:32.346Z,90.50
2019-03-27T00:16:03.587Z,90.50
2019-03-27T00:18:34.821Z,90.40
2019-03-27T00:21:06.073Z,90.30
2019-03-27T00:23:37.282Z,90.20
2019-03-27T00:26:08.701Z,90.10
2019-03-27T00:28:39.952Z,90.80
2019-03-27T00:31:12.025Z,91.30
2019-03-27T00:33:43.394Z,91.00
2019-03-27T00:36:14.621Z,91.20
2019-03-27T00:38:45.889Z,91.60
2019-03-27T00:41:17.106Z,91.70
2019-03-27T00:43:48.344Z,91.80
2019-03-27T00:46:19.782Z,92.00
2019-03-27T00:48:51.024Z,92.00
2019-03-27T00:51:22.305Z,92.50
2019-03-27T00:53:53.513Z,92.80
2019-03-27T00:56:24.765Z,92.70
2019-03-27T00:58:55.977Z,93.30
2019-03-27T01:01:27.247Z,93.40
2019-03-27T01:03:58.496Z,93.90
2019-03-27T01:06:29.742Z,94.00
2019-03-27T01:09:00.995Z,94.10
2019-03-27T01:11:32.276Z,93.80
2019-03-27T01:14:03.458Z,94.20
2019-03-27T01:16:34.779Z,94.40
2019-03-27T01:19:06.016Z,94.50
2019-03-27T01:21:37.250Z,94.60
2019-03-27T01:24:08.611Z,94.90
2019-03-27T01:26:39.830Z,95.50
2019-03-27T01:29:11.048Z,95.80
2019-03-27T01:31:42.312Z,96.10
2019-03-27T01:34:13.557Z,96.40
2019-03-27T01:36:44.820Z,96.90
2019-03-27T01:39:16.678Z,96.90
2019-03-27T01:41:47.913Z,97.00
2019-03-27T01:44:19.107Z,97.00
2019-03-27T01:46:50.357Z,97.10
2019-03-27T01:49:21.570Z,96.90
2019-03-27T01:51:52.850Z,96.50
2019-03-27T01:54:24.069Z,96.70
2019-03-27T01:56:55.331Z,96.60
2019-03-27T01:59:26.527Z,97.20
2019-03-27T02:01:57.743Z,97.30
2019-03-27T02:04:30.264Z,97.10
2019-03-27T02:07:01.520Z,97.20
2019-03-27T02:09:32.748Z,97.10
2019-03-27T02:12:04.189Z,98.40
2019-03-27T02:14:35.451Z,98.10
2019-03-27T02:17:06.780Z,98.50
2019-03-27T02:19:38.021Z,98.30
2019-03-27T02:22:12.555Z,98.10
2019-03-27T02:24:43.795Z,98.40
2019-03-27T02:27:15.027Z,98.70
2019-03-27T02:29:46.386Z,98.80
2019-03-27T02:32:20.681Z,99.00
2019-03-27T02:34:50.645Z,99.10
2019-03-27T02:37:21.858Z,98.90
2019-03-27T02:39:53.079Z,99.20
2019-03-27T02:42:24.315Z,99.10
2019-03-27T02:44:55.651Z,99.60
2019-03-27T02:47:26.860Z,99.40
2019-03-27T02:49:58.097Z,99.70
2019-03-27T02:52:29.447Z,99.40
2019-03-27T02:55:00.702Z,99.20
2019-03-27T02:57:31.906Z,99.30
2019-03-27T03:00:03.209Z,99.20
2019-03-27T03:02:34.452Z,99.20
2019-03-27T03:05:06.623Z,99.00
2019-03-27T03:07:38.225Z,98.70
2019-03-27T03:10:10.759Z,99.00
2019-03-27T03:12:41.981Z,98.90
2019-03-27T03:15:15.465Z,98.90
2019-03-27T03:17:46.712Z,99.00
2019-03-27T03:20:17.968Z,98.90
2019-03-27T03:22:49.227Z,98.80
2019-03-27T03:25:20.471Z,98.60
2019-03-27T03:27:51.689Z,98.70
2019-03-27T03:30:22.907Z,98.60
2019-03-27T03:32:54.156Z,98.60
2019-03-27T03:35:25.418Z,98.50
2019-03-27T03:37:56.650Z,98.60
2019-03-27T03:40:27.870Z,98.90
2019-03-27T03:42:59.135Z,99.00
2019-03-27T03:45:30.346Z,99.20
2019-03-27T03:48:01.586Z,99.40
2019-03-27T03:50:44.383Z,99.50
2019-03-27T03:53:16.905Z,99.50
2019-03-27T03:55:48.111Z,99.60
2019-03-27T03:58:19.568Z,99.60
2019-03-27T04:00:51.073Z,99.90
2019-03-27T04:03:24.450Z,99.80
2019-03-27T04:05:55.702Z,99.80
2019-03-27T04:08:26.969Z,99.90
2019-03-27T04:10:58.208Z,99.90
2019-03-27T04:13:29.519Z,99.90
2019-03-27T04:16:00.779Z,99.90
2019-03-27T04:18:32.061Z,99.90
2019-03-27T04:21:04.001Z,99.90
2019-03-27T04:23:35.264Z,99.90
2019-03-27T04:26:10.070Z,99.90
2019-03-27T04:28:39.567Z,99.90
2019-03-27T04:31:10.740Z,99.90
2019-03-27T04:33:41.957Z,99.90
2019-03-27T04:36:13.162Z,99.90
2019-03-27T04:38:44.451Z,99.90
2019-03-27T04:41:15.668Z,99.90
2019-03-27T04:43:46.921Z,99.90
2019-03-27T04:46:18.156Z,99.90
2019-03-27T04:48:49.422Z,99.90
2019-03-27T04:51:20.643Z,99.90
2019-03-27T04:53:51.899Z,99.90
2019-03-27T04:56:23.134Z,99.90
2019-03-27T04:58:54.367Z,99.90
2019-03-27T05:01:25.668Z,99.90
2019-03-27T05:03:57.207Z,99.90
2019-03-27T05:06:28.433Z,99.90
2019-03-27T05:08:59.666Z,99.90
2019-03-27T05:11:30.927Z,99.90
2019-03-27T05:14:02.176Z,99.90
2019-03-27T05:16:33.527Z,99.90
2019-03-27T05:19:04.818Z,99.90
2019-03-27T05:21:36.043Z,99.90
2019-03-27T05:24:07.319Z,99.90
2019-03-27T05:26:38.533Z,99.90
2019-03-27T05:29:09.843Z,99.90
2019-03-27T05:31:41.067Z,99.90
2019-03-27T05:34:12.297Z,99.90
2019-03-27T05:36:43.550Z,99.90
2019-03-27T05:39:14.885Z,99.90
2019-03-27T05:41:46.183Z,99.90
2019-03-27T05:44:17.394Z,99.90
2019-03-27T05:46:48.647Z,99.90
2019-03-27T05:49:19.817Z,99.50
2019-03-27T05:51:51.122Z,99.50
2019-03-27T05:54:22.424Z,99.80
2019-03-27T05:56:53.750Z,99.70
2019-03-27T05:59:25.014Z,99.60
2019-03-27T06:01:56.486Z,99.60
2019-03-27T06:04:27.699Z,99.50
2019-03-27T06:06:58.935Z,99.40
2019-03-27T06:09:30.192Z,99.30
2019-03-27T06:12:01.519Z,99.10
2019-03-27T06:14:33.019Z,98.80
2019-03-27T06:17:04.200Z,99.00
2019-03-27T06:19:35.543Z,99.00
2019-03-27T06:22:06.779Z,98.80
2019-03-27T06:24:38.025Z,98.80
2019-03-27T06:27:09.394Z,98.60
2019-03-27T06:29:40.586Z,98.80
2019-03-27T06:32:12.341Z,98.80
2019-03-27T06:34:43.618Z,98.50
2019-03-27T06:37:14.852Z,98.40
2019-03-27T06:39:46.199Z,98.60
2019-03-27T06:42:17.468Z,97.80
2019-03-27T06:44:48.705Z,92.70
2019-03-27T06:47:19.962Z,82.50
2019-03-27T06:49:51.662Z,73.40
2019-03-27T06:52:23.020Z,68.20
2019-03-27T06:54:54.296Z,61.40
2019-03-27T06:57:25.611Z,57.50
2019-03-27T06:59:56.877Z,53.60
2019-03-27T07:02:28.989Z,51.80
2019-03-27T07:05:00.819Z,51.00
2019-03-27T07:07:32.285Z,48.40
2019-03-27T07:10:03.841Z,46.40
2019-03-27T07:12:35.102Z,43.90
2019-03-27T07:15:07.488Z,42.10
2019-03-27T07:17:38.804Z,40.90
2019-03-27T07:20:10.310Z,39.10
2019-03-27T07:22:41.591Z,38.60
2019-03-27T07:25:13.141Z,37.10
2019-03-27T07:27:44.412Z,36.30
2019-03-27T07:30:15.772Z,36.00
2019-03-27T07:32:47.050Z,35.60
2019-03-27T07:35:18.332Z,34.40
2019-03-27T07:37:49.595Z,32.80
2019-03-27T07:40:20.876Z,31.50
2019-03-27T07:42:52.223Z,30.30
2019-03-27T07:45:23.596Z,29.80
2019-03-27T07:47:54.914Z,29.80
2019-03-27T07:50:26.165Z,29.80
2019-03-27T07:52:57.448Z,29.40
2019-03-27T07:55:28.719Z,28.50
2019-03-27T07:57:59.960Z,27.50
2019-03-27T08:00:31.149Z,27.50
2019-03-27T08:03:02.375Z,27.00
2019-03-27T08:05:33.654Z,26.90
2019-03-27T08:08:04.998Z,27.40
2019-03-27T08:10:36.234Z,27.10
2019-03-27T08:13:07.552Z,27.90
2019-03-27T08:15:40.807Z,28.00
2019-03-27T08:18:11.781Z,28.60
2019-03-27T08:20:43.153Z,29.70
2019-03-27T08:23:14.410Z,32.00
2019-03-27T08:25:45.782Z,33.90
2019-03-27T08:28:17.150Z,35.70
2019-03-27T08:30:48.401Z,38.00
2019-03-27T08:33:19.667Z,39.70
2019-03-27T08:35:50.924Z,41.20
2019-03-27T08:38:22.192Z,42.70
2019-03-27T08:40:53.550Z,44.30
2019-03-27T08:43:25.713Z,46.40
2019-03-27T08:45:57.266Z,48.10
2019-03-27T08:48:28.630Z,49.90
2019-03-27T08:50:59.892Z,50.80
2019-03-27T08:53:31.143Z,51.30
2019-03-27T08:56:02.450Z,51.70
2019-03-27T08:58:33.710Z,50.10
2019-03-27T09:01:05.288Z,43.80
2019-03-27T09:03:36.617Z,39.60
2019-03-27T09:06:07.853Z,40.30
2019-03-27T09:08:39.172Z,38.50
2019-03-27T09:11:10.436Z,36.80
2019-03-27T09:13:41.739Z,35.70
2019-03-27T09:16:13.005Z,35.10
2019-03-27T09:18:45.481Z,36.00
2019-03-27T09:21:16.713Z,38.00
2019-03-27T09:23:47.979Z,39.70
2019-03-27T09:26:19.256Z,39.30
2019-03-27T09:28:50.616Z,40.70
2019-03-27T09:31:21.861Z,41.00
2019-03-27T09:33:53.186Z,41.70
2019-03-27T09:36:24.460Z,43.00
2019-03-27T09:38:55.755Z,44.10
2019-03-27T09:41:26.999Z,44.70
2019-03-27T09:43:58.254Z,44.30
2019-03-27T09:46:29.466Z,44.00
2019-03-27T09:49:00.737Z,44.00
2019-03-27T09:51:32.068Z,44.40
2019-03-27T09:54:03.460Z,45.10
2019-03-27T09:56:34.826Z,44.90
2019-03-27T09:59:06.269Z,45.50
2019-03-27T10:01:37.461Z,46.10
2019-03-27T10:04:08.789Z,45.80
2019-03-27T10:06:40.056Z,46.00
2019-03-27T10:09:11.364Z,46.40
2019-03-27T10:11:42.631Z,47.00
2019-03-27T10:14:13.902Z,47.80
2019-03-27T10:16:45.172Z,48.10
2019-03-27T10:19:16.449Z,48.10
2019-03-27T10:21:47.684Z,48.40
2019-03-27T10:24:19.034Z,48.60
2019-03-27T10:26:50.304Z,49.60
2019-03-27T10:29:21.650Z,50.60
2019-03-27T10:31:52.960Z,50.50
2019-03-27T10:34:24.197Z,50.20
2019-03-27T10:36:55.430Z,50.30
2019-03-27T10:39:26.687Z,50.00
2019-03-27T10:41:57.980Z,49.80
2019-03-27T10:44:29.210Z,49.20
2019-03-27T10:47:00.527Z,49.20
2019-03-27T10:49:34.381Z,48.40
2019-03-27T10:52:05.271Z,47.00
2019-03-27T10:54:37.421Z,45.80
2019-03-27T10:57:08.793Z,45.10
2019-03-27T10:59:40.070Z,45.00
2019-03-27T11:02:11.340Z,45.60
2019-03-27T11:04:42.595Z,45.20
2019-03-27T11:07:13.923Z,45.40
2019-03-27T11:09:45.204Z,44.30
2019-03-27T11:12:16.489Z,45.00
2019-03-27T11:14:47.740Z,44.80
2019-03-27T11:17:19.043Z,44.70
2019-03-27T11:19:50.283Z,43.60
2019-03-27T11:22:21.626Z,43.90
2019-03-27T11:24:52.844Z,46.20
2019-03-27T11:27:24.202Z,46.90
2019-03-27T11:29:55.447Z,48.20
2019-03-27T11:32:26.861Z,48.60
2019-03-27T11:34:58.076Z,49.20
2019-03-27T11:37:29.357Z,49.10
2019-03-27T11:40:00.581Z,49.50
2019-03-27T11:42:33.113Z,49.60
2019-03-27T11:45:04.674Z,49.40
2019-03-27T11:47:35.904Z,49.40
2019-03-27T11:50:09.431Z,48.60
2019-03-27T11:52:40.687Z,47.90
2019-03-27T11:55:12.080Z,48.20
2019-03-27T11:57:43.297Z,46.80
2019-03-27T12:00:15.252Z,46.20
2019-03-27T12:02:46.561Z,44.30
2019-03-27T12:05:18.011Z,43.50
2019-03-27T12:07:49.281Z,44.30
2019-03-27T12:10:20.531Z,42.80
2019-03-27T12:12:51.788Z,42.70
2019-03-27T12:15:42.671Z,43.30
2019-03-27T12:18:16.088Z,43.40
2019-03-27T12:20:58.069Z,43.40
2019-03-27T12:23:20.962Z,44.30
2019-03-27T12:25:55.085Z,44.70
2019-03-27T12:28:25.420Z,44.70
2019-03-27T12:30:56.739Z,45.10
2019-03-27T12:33:28.044Z,44.90
2019-03-27T12:35:59.309Z,45.30
2019-03-27T12:38:30.607Z,45.60
2019-03-27T12:41:01.832Z,45.70
2019-03-27T12:43:33.101Z,45.90
2019-03-27T12:46:04.528Z,46.80
2019-03-27T12:48:35.908Z,45.50
2019-03-27T12:51:13.174Z,46.00
2019-03-27T12:53:40.124Z,45.20
2019-03-27T12:56:11.388Z,44.40
2019-03-27T12:58:42.802Z,43.90
2019-03-27T13:01:14.071Z,43.80
2019-03-27T13:03:45.476Z,43.50
2019-03-27T13:06:16.787Z,44.30
2019-03-27T13:08:49.632Z,44.00
2019-03-27T13:11:20.980Z,44.20
2019-03-27T13:13:52.331Z,44.80
2019-03-27T13:16:23.701Z,44.80
2019-03-27T13:18:54.969Z,45.00
2019-03-27T13:21:27.019Z,45.50
2019-03-27T13:23:59.668Z,45.20
2019-03-27T13:26:30.913Z,45.10
2019-03-27T13:29:02.398Z,45.30
2019-03-27T13:31:33.705Z,45.50
2019-03-27T13:34:05.007Z,46.00
2019-03-27T13:36:37.731Z,45.90
2019-03-27T13:39:09.822Z,45.60
2019-03-27T13:41:41.137Z,46.00
2019-03-27T13:44:12.564Z,46.40
2019-03-27T13:46:43.899Z,45.70
2019-03-27T13:49:15.264Z,45.90
2019-03-27T13:51:46.551Z,46.00
2019-03-27T13:54:17.878Z,46.30
2019-03-27T13:56:49.185Z,46.00
2019-03-27T13:59:20.572Z,47.00
2019-03-27T14:01:51.884Z,47.10
2019-03-27T14:04:23.138Z,47.10
2019-03-27T14:06:54.864Z,46.30
2019-03-27T14:09:26.137Z,45.60
2019-03-27T14:11:57.451Z,45.40
2019-03-27T14:14:28.703Z,45.50
2019-03-27T14:17:00.107Z,44.60
2019-03-27T14:19:31.364Z,44.60
2019-03-27T14:22:02.686Z,44.00
2019-03-27T14:24:34.054Z,44.10
2019-03-27T14:27:05.350Z,44.40
2019-03-27T14:29:37.154Z,44.10
2019-03-27T14:32:08.562Z,43.90
2019-03-27T14:34:40.181Z,44.00
2019-03-27T14:37:11.469Z,43.50
2019-03-27T14:39:42.803Z,43.90
2019-03-27T14:42:14.088Z,42.70
2019-03-27T14:44:45.336Z,42.50
2019-03-27T14:47:16.690Z,42.70
2019-03-27T14:49:47.963Z,42.70
2019-03-27T14:52:19.310Z,41.40
2019-03-27T14:54:50.621Z,41.50
2019-03-27T14:57:21.910Z,41.70
2019-03-27T14:59:53.301Z,41.10
2019-03-27T15:02:24.659Z,40.40
2019-03-27T15:04:57.026Z,40.90
2019-03-27T15:07:28.399Z,40.10
2019-03-27T15:09:59.677Z,41.30
2019-03-27T15:12:30.987Z,40.80
2019-03-27T15:15:02.264Z,40.00
2019-03-27T15:17:33.593Z,40.30
2019-03-27T15:20:06.134Z,39.70
2019-03-27T15:22:37.533Z,40.00
2019-03-27T15:25:09.143Z,39.80
2019-03-27T15:27:40.468Z,39.80
2019-03-27T15:30:14.896Z,40.40
2019-03-27T15:32:46.451Z,40.50
2019-03-27T15:35:17.806Z,40.60
2019-03-27T15:37:49.078Z,40.00
2019-03-27T15:40:40.599Z,39.90
2019-03-27T15:43:12.049Z,40.10
2019-03-27T15:45:43.600Z,40.00
2019-03-27T15:48:14.979Z,40.40
2019-03-27T15:50:55.516Z,40.90
2019-03-27T15:53:19.345Z,40.80
2019-03-27T15:55:50.833Z,40.00
2019-03-27T15:58:22.261Z,39.80
2019-03-27T16:00:53.858Z,40.60
2019-03-27T16:03:25.151Z,41.40
2019-03-27T16:05:56.546Z,41.30
2019-03-27T16:08:28.210Z,41.10
2019-03-27T16:10:59.488Z,41.70
2019-03-27T16:13:30.741Z,42.00
2019-03-27T16:16:02.156Z,41.70
2019-03-27T16:18:33.691Z,41.90
2019-03-27T16:21:04.919Z,42.10
2019-03-27T16:23:36.348Z,43.10
2019-03-27T16:26:07.671Z,43.40
2019-03-27T16:28:39.016Z,43.00
2019-03-27T16:31:10.291Z,44.10
2019-03-27T16:33:41.618Z,44.50
2019-03-27T16:36:12.874Z,44.70
2019-03-27T16:38:44.215Z,45.60
2019-03-27T16:41:15.518Z,45.60
2019-03-27T16:43:46.877Z,46.20
2019-03-27T16:46:18.138Z,46.90
2019-03-27T16:48:49.456Z,46.30
2019-03-27T16:51:20.887Z,47.10
2019-03-27T16:53:52.202Z,46.40
2019-03-27T16:56:23.523Z,46.70
2019-03-27T16:58:54.827Z,48.20
2019-03-27T17:01:26.186Z,49.30
2019-03-27T17:03:57.472Z,50.10
2019-03-27T17:06:28.727Z,50.80
2019-03-27T17:09:00.031Z,51.70
2019-03-27T17:11:31.329Z,52.40
2019-03-27T17:14:02.620Z,52.80
2019-03-27T17:16:33.872Z,53.40
2019-03-27T17:19:05.223Z,53.60
2019-03-27T17:21:36.456Z,54.60
2019-03-27T17:24:07.726Z,54.00
2019-03-27T17:26:39.017Z,54.20
2019-03-27T17:29:10.565Z,54.80
2019-03-27T17:31:41.896Z,55.30
2019-03-27T17:34:13.236Z,55.40
2019-03-27T17:36:44.523Z,56.00
2019-03-27T17:39:15.814Z,56.40
2019-03-27T17:41:47.133Z,56.40
2019-03-27T17:44:18.568Z,57.80
2019-03-27T17:46:50.358Z,57.90
2019-03-27T17:49:21.696Z,58.00
2019-03-27T17:51:53.176Z,58.60
2019-03-27T17:54:24.470Z,58.90
2019-03-27T17:56:56.001Z,59.40
2019-03-27T17:59:27.387Z,59.60
2019-03-27T18:01:58.592Z,59.70
2019-03-27T18:04:30.019Z,60.80
2019-03-27T18:07:01.288Z,61.00
2019-03-27T18:09:32.642Z,62.40
2019-03-27T18:12:04.058Z,63.50
2019-03-27T18:14:35.454Z,64.10
2019-03-27T18:17:06.700Z,64.10
2019-03-27T18:19:38.025Z,64.60
2019-03-27T18:22:09.297Z,65.00
2019-03-27T18:24:40.689Z,65.40
2019-03-27T18:27:12.039Z,65.90
2019-03-27T18:29:43.318Z,66.60
2019-03-27T18:32:14.795Z,66.90
2019-03-27T18:34:46.079Z,67.60
2019-03-27T18:37:17.481Z,68.30
2019-03-27T18:39:48.797Z,68.80
2019-03-27T18:42:20.117Z,69.60
2019-03-27T18:44:51.349Z,69.80
2019-03-27T18:47:22.688Z,70.30
2019-03-27T18:49:54.342Z,70.50
2019-03-27T18:52:25.627Z,70.90
2019-03-27T18:54:58.266Z,71.20
2019-03-27T18:57:29.523Z,71.60
2019-03-27T19:00:00.993Z,72.00
2019-03-27T19:02:32.334Z,72.90
2019-03-27T19:05:03.900Z,72.90
2019-03-27T19:07:35.152Z,73.70
2019-03-27T19:10:06.736Z,74.10
2019-03-27T19:12:38.163Z,75.20
2019-03-27T19:15:09.919Z,75.50
2019-03-27T19:17:41.266Z,75.40
2019-03-27T19:20:12.997Z,75.70
2019-03-27T19:22:44.457Z,76.50
2019-03-27T19:25:15.823Z,76.80
2019-03-27T19:27:47.477Z,77.20
2019-03-27T19:30:19.579Z,77.70
2019-03-27T19:32:50.960Z,78.30
2019-03-27T19:35:22.262Z,79.20
2019-03-27T19:37:54.225Z,79.50
2019-03-27T19:40:25.636Z,80.30
2019-03-27T19:42:57.019Z,80.80
2019-03-27T19:45:28.382Z,80.90
2019-03-27T19:47:59.669Z,81.70
2019-03-27T19:50:30.959Z,82.10
2019-03-27T19:53:02.327Z,82.30
2019-03-27T19:55:33.688Z,82.60
2019-03-27T19:58:05.003Z,82.80
2019-03-27T20:00:36.608Z,83.10
2019-03-27T20:03:08.007Z,83.60
2019-03-27T20:05:39.330Z,83.70
2019-03-27T20:08:10.594Z,84.10
2019-03-27T20:10:41.853Z,85.10
2019-03-27T20:13:13.112Z,85.30
2019-03-27T20:15:44.500Z,86.90
2019-03-27T20:18:15.766Z,87.00
2019-03-27T20:20:47.102Z,87.50
2019-03-27T20:23:18.400Z,88.40
2019-03-27T20:25:49.811Z,88.30
2019-03-27T20:28:21.122Z,88.70
2019-03-27T20:30:52.563Z,88.70
2019-03-27T20:33:24.379Z,89.40
2019-03-27T20:35:55.771Z,89.80
2019-03-27T20:38:27.680Z,90.00
2019-03-27T20:40:59.039Z,90.20
2019-03-27T20:43:30.639Z,90.30
2019-03-27T20:46:02.046Z,90.40
2019-03-27T20:48:33.624Z,90.40
2019-03-27T20:51:06.225Z,90.60
2019-03-27T20:53:37.481Z,90.80
2019-03-27T20:56:09.050Z,90.90
2019-03-27T20:58:40.374Z,91.10
2019-03-27T21:01:11.608Z,91.40
2019-03-27T21:03:42.969Z,91.60
2019-03-27T21:06:14.218Z,91.40
2019-03-27T21:08:45.615Z,91.70
2019-03-27T21:11:16.945Z,91.80
2019-03-27T21:13:48.255Z,91.90
2019-03-27T21:16:19.548Z,92.00
2019-03-27T21:18:50.794Z,91.90
2019-03-27T21:21:22.177Z,93.00
2019-03-27T21:23:53.490Z,92.70
2019-03-27T21:26:24.880Z,93.00
2019-03-27T21:28:56.143Z,92.90
2019-03-27T21:31:27.408Z,93.20
2019-03-27T21:33:58.679Z,93.40
2019-03-27T21:36:29.955Z,93.50
2019-03-27T21:39:01.209Z,93.70
2019-03-27T21:41:32.518Z,93.60
2019-03-27T21:44:04.491Z,93.70
2019-03-27T21:46:35.745Z,93.70
2019-03-27T21:49:07.100Z,93.70
2019-03-27T21:51:38.535Z,93.60
2019-03-27T21:54:10.508Z,93.50
2019-03-27T21:56:42.149Z,93.60
2019-03-27T21:59:13.579Z,93.70
2019-03-27T22:01:44.996Z,93.70
2019-03-27T22:04:16.551Z,93.80
2019-03-27T22:06:51.694Z,93.90
2019-03-27T22:09:30.012Z,94.00
2019-03-27T22:12:01.617Z,94.00
2019-03-27T22:14:32.864Z,94.20
2019-03-27T22:17:04.168Z,94.30
2019-03-27T22:19:35.513Z,94.40
2019-03-27T22:22:06.911Z,94.40
2019-03-27T22:24:38.238Z,94.40
2019-03-27T22:27:09.594Z,94.40
2019-03-27T22:29:40.848Z,94.50
2019-03-27T22:32:13.334Z,94.80
2019-03-27T22:34:44.629Z,94.60
2019-03-27T22:37:16.003Z,95.10
2019-03-27T22:39:47.257Z,95.30
2019-03-27T22:42:18.631Z,95.50
2019-03-27T22:44:49.849Z,95.40
2019-03-27T22:47:21.122Z,95.40
2019-03-27T22:49:52.429Z,95.40
2019-03-27T22:52:23.783Z,95.40
2019-03-27T22:54:55.033Z,95.50
2019-03-27T22:57:26.273Z,95.80
2019-03-27T22:59:57.546Z,95.70
2019-03-27T23:02:28.780Z,95.80
2019-03-27T23:05:00.047Z,95.90
2019-03-27T23:07:31.314Z,96.10
2019-03-27T23:10:02.529Z,96.30
2019-03-27T23:12:33.806Z,96.40
2019-03-27T23:15:05.444Z,96.40
2019-03-27T23:17:36.676Z,96.30
2019-03-27T23:20:08.679Z,96.30
2019-03-27T23:22:39.980Z,96.70
2019-03-27T23:25:12.005Z,96.90
2019-03-27T23:27:43.427Z,97.10
2019-03-27T23:30:15.011Z,97.10
2019-03-27T23:32:46.276Z,97.30
2019-03-27T23:35:18.258Z,97.40
2019-03-27T23:37:49.659Z,97.80
2019-03-27T23:40:20.940Z,97.70
2019-03-27T23:42:52.191Z,97.90
2019-03-27T23:45:23.441Z,98.00
2019-03-27T23:47:54.782Z,97.90
2019-03-27T23:50:26.149Z,98.30
2019-03-27T23:52:57.473Z,98.30
2019-03-27T23:55:28.735Z,98.30
2019-03-27T23:57:59.982Z,98.20
